Time;durP1;ratioP1;P1;durP2;ratioP2;P2;SDS_P1;SDS_P2;PMS_P1;PMS_P2;Temp;Humidity;BMP_temperature;BMP_pressure;BME280_temperature;BME280_humidity;BME280_pressure;Samples;Min_cycle;Max_cycle;Signal;HPM_P1;HPM_P2
2022/05/22 00:02:06;;;;;;;4.08;2.47;;;;;;;23.05;41.66;100065.94;1846877;77;21063;-79
2022/05/22 00:04:33;;;;;;;3.27;2.27;;;;;;;23.06;41.70;100066.17;1847069;77;21080;-79
2022/05/22 00:06:59;;;;;;;2.85;2.10;;;;;;;23.06;41.72;100062.83;1846841;77;21534;-79
2022/05/22 00:09:28;;;;;;;3.10;2.52;;;;;;;23.06;41.73;100062.02;1846919;77;21063;-79
2022/05/22 00:11:54;;;;;;;3.00;2.10;;;;;;;23.06;41.74;100062.02;1846978;77;21111;-79
2022/05/22 00:14:21;;;;;;;2.90;2.22;;;;;;;23.05;41.74;100059.00;1823224;77;21087;-79
2022/05/22 00:16:48;;;;;;;2.72;2.20;;;;;;;23.06;41.77;100066.17;1847181;77;21110;-79
2022/05/22 00:19:20;;;;;;;2.92;2.20;;;;;;;23.06;41.79;100071.73;1847121;77;21040;-79
2022/05/22 00:21:47;;;;;;;2.62;2.02;;;;;;;23.06;41.80;100076.70;1846968;77;21048;-79
2022/05/22 00:24:13;;;;;;;2.92;2.17;;;;;;;23.06;41.80;100072.54;1846815;77;21267;-79
2022/05/22 00:26:39;;;;;;;3.37;1.98;;;;;;;23.06;41.81;100082.25;1847049;77;21033;-79
2022/05/22 00:29:06;;;;;;;2.83;2.15;;;;;;;23.06;41.83;100075.31;1851059;77;21149;-79
2022/05/22 00:31:32;;;;;;;3.22;2.08;;;;;;;23.06;41.84;100081.44;1846694;77;21079;-79
2022/05/22 00:33:59;;;;;;;2.92;2.10;;;;;;;23.05;41.84;100083.40;1846923;77;21040;-79
2022/05/22 00:36:25;;;;;;;2.70;2.10;;;;;;;23.05;41.87;100090.34;1846674;77;21087;-79
2022/05/22 00:38:51;;;;;;;3.05;2.00;;;;;;;23.06;41.87;100086.98;1851442;77;21463;-79
2022/05/22 00:41:18;;;;;;;3.10;2.40;;;;;;;23.06;41.88;100091.95;1846915;77;21121;-79
2022/05/22 00:43:47;;;;;;;3.52;2.27;;;;;;;23.06;41.92;100085.60;1846472;77;21009;-79
2022/05/22 00:46:15;;;;;;;3.47;2.20;;;;;;;23.06;41.92;100096.70;1847200;77;21401;-79
2022/05/22 00:48:44;;;;;;;2.80;2.20;;;;;;;23.06;41.94;100097.52;1847191;77;21036;-79
2022/05/22 00:51:21;;;;;;;2.77;2.35;;;;;;;23.06;41.93;100099.47;1846726;77;21067;-79
2022/05/22 00:53:52;;;;;;;2.62;1.90;;;;;;;23.05;41.94;100100.05;1846789;77;21111;-79
2022/05/22 00:56:21;;;;;;;2.62;1.90;;;;;;;23.06;41.96;100099.47;1845083;77;21435;-79
2022/05/22 00:58:48;;;;;;;4.17;2.25;;;;;;;23.06;41.97;100099.47;1846984;77;21051;-79
2022/05/22 01:01:14;;;;;;;3.37;2.08;;;;;;;23.05;41.97;100097.84;1846942;77;21119;-79
2022/05/22 01:03:41;;;;;;;2.75;2.27;;;;;;;23.05;41.98;100099.23;1823040;77;21037;-79
2022/05/22 01:06:12;;;;;;;3.45;2.22;;;;;;;23.04;41.98;100094.27;1847090;77;22061;-79
2022/05/22 01:08:39;;;;;;;3.08;2.20;;;;;;;23.05;41.99;100100.63;1846768;77;21056;-78
2022/05/22 01:11:15;;;;;;;2.60;2.00;;;;;;;23.04;41.99;100099.81;1846631;77;21047;-78
2022/05/22 01:13:53;;;;;;;3.40;2.10;;;;;;;23.05;42.03;100092.30;1845562;77;21025;-78
2022/05/22 01:16:19;;;;;;;3.25;2.10;;;;;;;23.05;42.03;100100.63;1846650;77;21016;-78
2022/05/22 01:18:50;;;;;;;3.05;2.17;;;;;;;23.05;42.03;100104.78;1847011;77;21066;-78
2022/05/22 01:21:21;;;;;;;3.12;2.30;;;;;;;23.04;42.02;100105.36;1846955;77;21005;-79
2022/05/22 01:23:47;;;;;;;2.47;1.92;;;;;;;23.04;42.06;100104.58;1845880;77;21021;-79
2022/05/22 01:26:14;;;;;;;4.12;2.10;;;;;;;23.04;42.04;100107.36;1846944;77;21071;-79
2022/05/22 01:28:40;;;;;;;3.27;2.00;;;;;;;23.04;42.08;100107.36;1847056;77;21028;-79
2022/05/22 01:31:06;;;;;;;3.25;2.22;;;;;;;23.03;42.11;100105.16;1846635;77;21507;-79
2022/05/22 01:33:34;;;;;;;2.35;1.70;;;;;;;23.04;42.11;100105.97;1846916;77;21005;-79
2022/05/22 01:36:02;;;;;;;3.02;2.17;;;;;;;23.04;42.12;100119.23;1846789;77;21017;-79
2022/05/22 01:38:28;;;;;;;4.42;2.20;;;;;;;23.05;42.14;100117.27;1846705;77;21470;-79
2022/05/22 01:41:00;;;;;;;2.83;2.15;;;;;;;23.04;42.15;100111.52;1847121;77;20937;-79
2022/05/22 01:43:26;;;;;;;2.65;2.05;;;;;;;23.04;42.16;100118.45;1846695;77;21008;-79
2022/05/22 01:45:58;;;;;;;3.40;2.05;;;;;;;23.04;42.17;100162.23;1846546;77;21016;-79
2022/05/22 01:48:22;;;;;;;3.40;2.17;;;;;;;23.04;42.17;100162.23;1845133;77;21018;-79
2022/05/22 01:50:49;;;;;;;2.87;1.85;;;;;;;23.05;42.15;100163.05;1847150;77;21479;-79
2022/05/22 01:53:16;;;;;;;3.80;2.20;;;;;;;23.04;42.16;100165.63;1846560;77;21099;-79
2022/05/22 01:55:43;;;;;;;3.02;2.25;;;;;;;23.04;42.15;100163.63;1847047;77;21037;-78
2022/05/22 01:58:09;;;;;;;3.80;2.00;;;;;;;23.04;42.15;100160.06;1846934;77;21008;-79
2022/05/22 02:00:36;;;;;;;3.15;2.37;;;;;;;23.04;42.15;100164.23;1846625;77;20994;-79
2022/05/22 02:03:02;;;;;;;3.02;2.17;;;;;;;23.03;42.18;100163.42;1846647;77;21492;-79
2022/05/22 02:05:28;;;;;;;2.85;2.10;;;;;;;23.03;42.14;100157.88;1847012;77;21091;-79
2022/05/22 02:10:40;;;;;;;5.50;2.70;;;;;;;23.04;42.14;100171.17;1847026;77;21016;-79
2022/05/22 02:13:07;;;;;;;3.58;2.30;;;;;;;23.04;42.14;100168.39;1846530;77;21439;-79
2022/05/22 02:15:39;;;;;;;3.15;2.37;;;;;;;23.04;42.13;100170.56;1846505;77;21049;-78
2022/05/22 02:18:06;;;;;;;3.17;2.37;;;;;;;23.03;42.14;100166.77;1846915;77;21087;-78
2022/05/22 02:20:32;;;;;;;2.98;2.37;;;;;;;23.03;42.13;100171.74;1846659;77;21158;-78
2022/05/22 02:22:58;;;;;;;3.95;2.58;;;;;;;23.03;42.13;100171.74;1846626;77;21462;-79
2022/05/22 02:25:31;;;;;;;3.77;2.40;;;;;;;23.04;42.14;100173.94;1846781;77;21032;-79
2022/05/22 02:27:57;;;;;;;3.02;2.50;;;;;;;23.03;42.15;100172.31;1846665;77;21021;-79
2022/05/22 02:30:27;;;;;;;4.53;2.40;;;;;;;23.03;42.14;100177.29;1846964;77;21526;-79
2022/05/22 02:32:53;;;;;;;2.52;2.10;;;;;;;23.03;42.15;100179.25;1846659;77;21454;-79
2022/05/22 02:35:20;;;;;;;4.65;2.47;;;;;;;23.03;42.15;100188.39;1846510;77;20992;-79
2022/05/22 02:37:51;;;;;;;4.15;2.30;;;;;;;23.03;42.14;100177.29;1845213;77;20993;-79
2022/05/22 02:40:20;;;;;;;4.37;2.22;;;;;;;23.03;42.15;100184.80;1829666;78;21104;-79
2022/05/22 02:42:48;;;;;;;4.22;2.22;;;;;;;23.03;42.16;100182.03;1829768;77;21076;-79
2022/05/22 02:45:18;;;;;;;5.17;2.80;;;;;;;23.03;42.14;100182.84;1829944;78;21021;-79
2022/05/22 02:47:44;;;;;;;3.62;2.45;;;;;;;23.03;42.14;100174.52;1830001;77;21451;-79
2022/05/22 02:50:11;;;;;;;4.40;2.60;;;;;;;23.03;42.14;100176.48;1829900;78;21431;-79
2022/05/22 02:52:37;;;;;;;3.52;2.05;;;;;;;23.04;42.16;100190.59;1829976;77;21044;-79
2022/05/22 02:55:05;;;;;;;2.77;2.10;;;;;;;23.02;42.19;100188.16;1829989;77;21506;-79
2022/05/22 02:57:39;;;;;;;5.20;2.45;;;;;;;23.03;42.19;100197.28;1829898;77;22084;-79
2022/05/22 03:00:10;;;;;;;3.58;2.33;;;;;;;23.03;42.19;100201.45;1830197;77;21456;-79
2022/05/22 03:02:36;;;;;;;;;;;;;;;23.03;42.20;100204.22;1832529;78;21056;-79
2022/05/22 03:05:03;;;;;;;5.25;2.75;;;;;;;23.02;42.22;100203.98;1830097;77;20161;-79
2022/05/22 03:07:29;;;;;;;3.15;2.42;;;;;;;23.01;42.21;100207.91;1830058;78;21079;-79
2022/05/22 03:09:56;;;;;;;3.22;2.50;;;;;;;23.01;42.21;100205.13;1829866;78;21132;-79
2022/05/22 03:12:23;;;;;;;3.40;2.47;;;;;;;23.01;42.22;100201.78;1829961;78;21080;-79
2022/05/22 03:14:52;;;;;;;4.05;2.47;;;;;;;23.01;42.24;100200.97;1829940;77;21452;-79
2022/05/22 03:17:18;;;;;;;3.92;2.58;;;;;;;23.01;42.26;100203.17;1829721;78;21021;-79
2022/05/22 03:19:45;;;;;;;4.22;2.67;;;;;;;23.02;42.25;100205.38;1830174;78;21033;-79
2022/05/22 03:22:11;;;;;;;4.03;2.72;;;;;;;23.02;42.25;100206.77;1829961;78;20993;-79
2022/05/22 03:24:39;;;;;;;2.72;2.15;;;;;;;23.02;42.26;100208.15;1829555;78;21560;-79
2022/05/22 03:27:07;;;;;;;5.12;2.77;;;;;;;23.02;42.27;100206.19;1829976;77;21064;-79
2022/05/22 03:29:33;;;;;;;6.03;2.90;;;;;;;23.02;42.27;100205.38;1830098;78;20998;-79
2022/05/22 03:32:00;;;;;;;3.22;2.47;;;;;;;23.02;42.29;100197.05;1829944;77;21550;-79
2022/05/22 03:34:26;;;;;;;3.22;2.35;;;;;;;23.02;42.30;100213.70;1829936;77;22010;-79
2022/05/22 03:36:53;;;;;;;3.17;2.08;;;;;;;23.02;42.30;100215.90;1839535;77;21071;-79
2022/05/22 03:39:19;;;;;;;4.33;2.50;;;;;;;23.02;42.30;100208.95;1840939;77;21002;-79
2022/05/22 03:41:45;;;;;;;3.77;2.58;;;;;;;23.03;42.29;100212.55;1841276;77;21021;-79
2022/05/22 03:44:11;;;;;;;3.50;2.42;;;;;;;23.03;42.31;100209.77;1841123;77;21028;-79
2022/05/22 03:46:38;;;;;;;4.85;2.40;;;;;;;23.03;42.33;100213.94;1842491;77;21056;-79
2022/05/22 03:49:04;;;;;;;3.08;2.30;;;;;;;23.04;42.32;100205.84;1846887;77;21060;-79
2022/05/22 03:51:30;;;;;;;4.40;2.40;;;;;;;23.03;42.33;100211.16;1846957;77;21107;-79
2022/05/22 03:53:58;;;;;;;4.10;2.55;;;;;;;23.03;42.34;100212.55;1846307;77;21490;-79
2022/05/22 03:56:24;;;;;;;4.55;2.37;;;;;;;23.03;42.34;100211.97;1846840;77;20977;-79
2022/05/22 03:58:51;;;;;;;4.22;2.33;;;;;;;23.04;42.34;100214.17;1846972;77;21771;-79
2022/05/22 04:01:17;;;;;;;3.17;2.27;;;;;;;23.04;42.36;100210.02;1822984;77;21596;-79
2022/05/22 04:03:43;;;;;;;2.90;2.25;;;;;;;23.04;42.35;100207.23;1846663;77;21091;-79
2022/05/22 04:06:10;;;;;;;2.92;2.10;;;;;;;23.04;42.34;100205.24;1846805;77;21460;-79
2022/05/22 04:08:37;;;;;;;2.87;2.30;;;;;;;23.04;42.35;100203.86;1846587;77;21135;-79
2022/05/22 04:11:13;;;;;;;4.67;2.20;;;;;;;23.04;42.37;100208.02;1846997;77;21009;-79
2022/05/22 04:13:40;;;;;;;2.58;2.05;;;;;;;23.04;42.38;100208.62;1822884;77;21009;-79
2022/05/22 04:16:06;;;;;;;4.12;2.50;;;;;;;23.04;42.37;100213.56;1846495;77;21397;-79
2022/05/22 04:18:32;;;;;;;2.87;2.17;;;;;;;23.05;42.38;100207.44;1822882;77;21083;-79
2022/05/22 04:20:59;;;;;;;3.62;2.10;;;;;;;23.05;42.39;100215.19;1846341;77;21044;-79
2022/05/22 04:26:10;;;;;;;2.67;2.25;;;;;;;23.04;42.39;100213.56;1845896;77;21653;-79
2022/05/22 04:28:37;;;;;;;2.98;2.10;;;;;;;23.05;42.38;100224.09;1846519;77;21091;-79
2022/05/22 04:31:03;;;;;;;4.12;2.00;;;;;;;23.05;42.39;100218.54;1846267;77;21040;-79
2022/05/22 04:33:31;;;;;;;3.60;2.10;;;;;;;23.05;42.39;100217.97;1845599;77;20977;-79
2022/05/22 04:35:57;;;;;;;4.15;2.12;;;;;;;23.05;42.38;100216.58;1846517;77;21118;-79
2022/05/22 04:38:24;;;;;;;3.75;2.10;;;;;;;23.06;42.37;100221.55;1838786;77;20993;-79
2022/05/22 04:41:02;;;;;;;3.58;2.22;;;;;;;23.05;42.37;100209.64;1829985;77;21056;-79
2022/05/22 04:43:30;;;;;;;3.58;2.10;;;;;;;23.06;42.37;100214.61;1830138;78;21413;-78
2022/05/22 04:45:56;;;;;;;6.15;1.90;;;;;;;23.06;42.36;100220.16;1830002;78;21033;-79
2022/05/22 04:48:24;;;;;;;3.20;2.02;;;;;;;23.05;42.35;100212.41;1830200;77;21444;-79
2022/05/22 04:50:51;;;;;;;3.08;1.92;;;;;;;23.06;42.34;100211.27;1830269;78;21044;-79
2022/05/22 04:53:21;;;;;;;3.33;1.92;;;;;;;23.07;42.36;100206.53;1829661;78;21080;-79
2022/05/22 04:55:47;;;;;;;2.35;1.75;;;;;;;23.06;42.34;100217.39;1829964;77;21064;-79
2022/05/22 04:58:19;;;;;;;2.90;1.92;;;;;;;23.07;42.32;100210.69;1829765;78;21083;-78
2022/05/22 05:00:46;;;;;;;4.70;1.70;;;;;;;23.06;42.32;100209.87;1829753;77;21452;-78
2022/05/22 05:03:13;;;;;;;2.92;2.02;;;;;;;23.07;42.31;100213.47;1829553;77;21081;-78
2022/05/22 05:05:39;;;;;;;2.92;2.05;;;;;;;23.08;42.30;100217.86;1829963;78;21566;-78
2022/05/22 05:08:05;;;;;;;2.95;1.62;;;;;;;23.07;42.29;100217.05;1829783;77;21052;-78
2022/05/22 05:10:32;;;;;;;3.17;1.70;;;;;;;23.08;42.26;100222.03;1829961;77;21107;-78
2022/05/22 05:13:00;;;;;;;2.55;1.82;;;;;;;23.08;42.26;100217.86;1829842;77;22137;-78
2022/05/22 05:15:26;;;;;;;3.12;1.67;;;;;;;23.09;42.25;100227.21;1829601;77;21045;-78
2022/05/22 05:17:52;;;;;;;4.05;1.70;;;;;;;23.09;42.24;100221.66;1830118;78;21017;-78
2022/05/22 05:20:24;;;;;;;3.35;2.00;;;;;;;23.09;42.22;100213.34;1829938;78;21061;-78
2022/05/22 05:22:47;;;;;;;2.70;1.85;;;;;;;23.09;42.22;100220.27;1827951;78;21068;-78
2022/05/22 05:25:14;;;;;;;4.90;2.10;;;;;;;23.09;42.22;100205.02;1829958;77;21729;-78
2022/05/22 05:27:40;;;;;;;3.92;1.90;;;;;;;23.10;42.23;100205.25;1806457;78;21128;-79
2022/05/22 05:30:07;;;;;;;3.33;1.80;;;;;;;23.10;42.18;100208.02;1829780;78;21009;-79
2022/05/22 05:32:34;;;;;;;3.52;1.80;;;;;;;23.09;42.16;100214.72;1830111;78;21063;-79
2022/05/22 05:35:03;;;;;;;3.02;1.70;;;;;;;23.11;42.17;100213.00;1829757;78;21527;-79
2022/05/22 05:37:30;;;;;;;2.75;1.70;;;;;;;23.11;42.17;100217.16;1797527;78;21443;-79
2022/05/22 05:39:56;;;;;;;2.40;1.62;;;;;;;23.11;42.15;100218.55;1795715;78;20942;-79
2022/05/22 05:42:23;;;;;;;2.45;1.77;;;;;;;23.11;42.18;100224.09;1799532;79;21033;-79
2022/05/22 05:44:50;;;;;;;2.42;1.62;;;;;;;23.11;42.16;100230.45;1793039;79;21057;-79
2022/05/22 05:47:16;;;;;;;5.35;1.60;;;;;;;23.11;42.16;100237.40;1795422;79;21080;-79
2022/05/22 05:49:42;;;;;;;2.98;1.50;;;;;;;23.12;42.16;100238.20;1795565;79;21181;-79
2022/05/22 05:52:09;;;;;;;5.28;1.80;;;;;;;23.12;42.14;100232.66;1795209;79;21420;-79
2022/05/22 05:54:35;;;;;;;3.70;1.80;;;;;;;23.12;42.17;100235.44;1795558;79;21068;-79
2022/05/22 05:57:02;;;;;;;2.55;2.00;;;;;;;23.12;42.18;100240.41;1795443;79;21657;-79
2022/05/22 05:59:34;;;;;;;2.80;1.57;;;;;;;23.12;42.18;100237.63;1795374;78;21115;-79
2022/05/22 06:02:00;;;;;;;4.62;1.85;;;;;;;23.13;42.22;100232.87;1795329;79;21530;-79
2022/05/22 06:04:27;;;;;;;3.20;1.98;;;;;;;23.13;42.22;100235.64;1773313;79;21298;-79
2022/05/22 06:06:53;;;;;;;4.08;1.60;;;;;;;23.12;42.22;100228.50;1795379;79;21037;-79
2022/05/22 06:09:20;;;;;;;2.02;1.50;;;;;;;23.13;42.22;100231.48;1795779;79;21088;-79
2022/05/22 06:11:46;;;;;;;6.22;1.80;;;;;;;23.12;42.20;100233.47;1795583;79;21117;-79
2022/05/22 06:14:12;;;;;;;2.47;1.42;;;;;;;23.13;42.19;100228.70;1773313;79;22613;-79
2022/05/22 06:16:38;;;;;;;3.65;1.45;;;;;;;23.13;42.20;100233.67;1795127;79;21048;-79
2022/05/22 06:19:05;;;;;;;2.50;1.60;;;;;;;23.12;42.14;100236.25;1773555;79;21084;-79
2022/05/22 06:21:31;;;;;;;3.12;1.65;;;;;;;23.12;42.13;100233.47;1773491;79;21190;-79
2022/05/22 06:23:57;;;;;;;2.72;1.60;;;;;;;23.13;42.13;100232.87;1795756;79;21033;-79
2022/05/22 06:26:24;;;;;;;4.62;1.62;;;;;;;23.13;42.09;100236.45;1795503;79;22333;-79
2022/05/22 06:28:51;;;;;;;2.58;1.50;;;;;;;23.14;42.06;100233.91;1795400;79;21108;-79
2022/05/22 06:31:18;;;;;;;3.05;1.65;;;;;;;23.14;42.01;100240.05;1795633;78;21045;-79
2022/05/22 06:33:44;;;;;;;2.02;1.32;;;;;;;23.14;42.00;100249.75;1795463;79;21081;-79
2022/05/22 06:36:14;;;;;;;2.25;1.50;;;;;;;23.14;41.97;100246.98;1795764;77;21465;-79
2022/05/22 06:41:25;;;;;;;1.80;1.40;;;;;;;23.15;41.93;100244.44;1798323;78;21005;-78
2022/05/22 06:43:52;;;;;;;2.95;1.55;;;;;;;23.15;41.93;100242.48;1805421;78;21041;-78
2022/05/22 06:46:30;;;;;;;2.65;1.62;;;;;;;23.15;41.94;100236.11;1790158;78;21587;-78
2022/05/22 06:48:56;;;;;;;2.58;1.37;;;;;;;23.15;41.98;100231.95;1790215;80;20973;-78
2022/05/22 06:51:23;;;;;;;2.40;1.50;;;;;;;23.14;42.03;100230.33;1790498;79;21190;-78
2022/05/22 06:53:49;;;;;;;3.67;1.70;;;;;;;23.14;42.06;100233.91;1790288;79;21555;-78
2022/05/22 06:56:15;;;;;;;2.45;1.52;;;;;;;23.15;42.09;100225.02;1790109;78;21032;-78
2022/05/22 06:58:41;;;;;;;2.10;1.62;;;;;;;23.15;42.13;100219.47;1790410;78;21001;-79
2022/05/22 07:01:08;;;;;;;2.80;1.45;;;;;;;23.15;42.14;100217.50;1768691;80;21109;-79
2022/05/22 07:03:35;;;;;;;2.75;1.52;;;;;;;23.16;42.17;100221.91;1790124;80;21108;-79
2022/05/22 07:06:01;;;;;;;2.50;1.55;;;;;;;23.16;42.17;100219.13;1790431;79;20983;-79
2022/05/22 07:08:28;;;;;;;2.35;1.60;;;;;;;23.18;42.18;100212.64;1790438;79;21081;-79
2022/05/22 07:13:38;;;;;;;2.12;1.50;;;;;;;23.18;42.21;100207.08;1790426;80;21077;-79
2022/05/22 07:16:05;;;;;;;3.50;1.72;;;;;;;23.19;42.21;100214.83;1790068;78;21042;-79
2022/05/22 07:18:32;;;;;;;2.75;1.92;;;;;;;23.18;42.21;100197.38;1768259;80;21437;-79
2022/05/22 07:20:58;;;;;;;2.08;1.45;;;;;;;23.19;42.21;100200.38;1790479;80;20974;-79
2022/05/22 07:23:24;;;;;;;2.37;1.52;;;;;;;23.20;42.20;100200.63;1790010;79;21572;-79
2022/05/22 07:25:53;;;;;;;2.25;1.60;;;;;;;23.20;42.23;100199.23;1790679;78;21034;-78
2022/05/22 07:28:25;;;;;;;2.17;1.65;;;;;;;23.21;42.22;100196.66;1790493;79;22021;-79
2022/05/22 07:30:51;;;;;;;2.27;1.72;;;;;;;23.22;42.24;100198.86;1790019;80;20922;-79
2022/05/22 07:33:17;;;;;;;2.22;1.45;;;;;;;23.22;42.22;100187.77;1790609;80;21033;-79
2022/05/22 07:35:56;;;;;;;1.98;1.47;;;;;;;23.22;42.23;100178.86;1790378;80;20950;-79
2022/05/22 07:38:23;;;;;;;2.45;1.50;;;;;;;23.22;42.24;100178.05;1795876;78;21540;-78
2022/05/22 07:40:49;;;;;;;2.25;1.67;;;;;;;23.23;42.23;100176.32;1799382;78;21146;-78
2022/05/22 07:43:16;;;;;;;2.33;1.50;;;;;;;23.23;42.23;100182.45;1800820;79;21189;-78
2022/05/22 07:45:42;;;;;;;2.35;1.70;;;;;;;23.24;42.24;100175.75;1800694;78;21553;-78
2022/05/22 07:48:09;;;;;;;2.00;1.50;;;;;;;23.25;42.25;100171.00;1801135;78;21033;-78
2022/05/22 07:50:35;;;;;;;2.45;1.50;;;;;;;23.24;42.24;100164.64;1801243;79;21076;-78
2022/05/22 07:53:01;;;;;;;2.12;1.50;;;;;;;23.24;42.24;100167.42;1803936;78;21102;-78
2022/05/22 07:55:28;;;;;;;1.75;1.42;;;;;;;23.23;42.24;100156.89;1801046;78;21002;-78
2022/05/22 07:57:54;;;;;;;2.67;1.50;;;;;;;23.26;42.26;100160.11;1801188;79;21530;-78
2022/05/22 08:00:21;;;;;;;3.45;2.20;;;;;;;23.27;42.26;100158.96;1800583;79;21088;-78
2022/05/22 08:02:48;;;;;;;2.58;1.67;;;;;;;23.26;42.25;100152.59;1800613;79;20957;-78
2022/05/22 08:05:17;;;;;;;2.55;1.52;;;;;;;23.26;42.25;100155.37;1801223;78;21239;-78
2022/05/22 08:07:43;;;;;;;3.02;1.70;;;;;;;23.26;42.25;100152.59;1800733;79;21022;-78
2022/05/22 08:10:10;;;;;;;2.20;1.57;;;;;;;23.26;42.25;100141.50;1800824;79;21439;-78
2022/05/22 08:12:40;;;;;;;2.35;1.55;;;;;;;23.28;42.25;100145.31;1801027;78;21496;-79
2022/05/22 08:15:07;;;;;;;2.90;1.65;;;;;;;23.28;42.25;100143.93;1799452;79;21614;-78
2022/05/22 08:17:37;;;;;;;2.42;1.50;;;;;;;23.28;42.26;100141.97;1801071;78;21220;-78
2022/05/22 08:20:12;;;;;;;1.80;1.37;;;;;;;23.28;42.26;100141.97;1801453;79;21449;-78
2022/05/22 08:22:40;;;;;;;2.67;1.67;;;;;;;23.28;42.27;100143.35;1800785;79;21048;-78
2022/05/22 08:25:07;;;;;;;2.02;1.60;;;;;;;23.29;42.26;100133.06;1801608;79;21332;-78
2022/05/22 08:27:34;;;;;;;3.52;1.75;;;;;;;23.28;42.26;100136.41;1801203;79;21045;-78
2022/05/22 08:30:06;;;;;;;2.72;1.30;;;;;;;23.29;42.25;100136.65;1801278;79;21092;-78
2022/05/22 08:32:39;;;;;;;2.62;1.57;;;;;;;23.29;42.27;100126.94;1801059;79;21076;-78
2022/05/22 08:35:07;;;;;;;2.47;1.50;;;;;;;23.29;42.27;100118.61;1800277;79;21021;-78
2022/05/22 08:37:34;;;;;;;5.03;2.10;;;;;;;23.29;42.25;100115.83;1822968;77;21587;-78
2022/05/22 08:40:00;;;;;;;3.98;1.70;;;;;;;23.30;42.28;100109.70;1846862;77;21037;-78
2022/05/22 08:42:35;;;;;;;2.58;1.40;;;;;;;23.29;42.28;100093.63;1850709;77;22018;-78
2022/05/22 08:45:01;;;;;;;3.10;1.45;;;;;;;23.30;42.28;100094.44;1846947;77;21028;-78
2022/05/22 08:47:42;;;;;;;3.15;1.90;;;;;;;23.30;42.27;100090.28;1847168;77;21505;-78
2022/05/22 08:50:11;;;;;;;2.85;1.50;;;;;;;23.31;42.27;100084.35;1846652;77;21021;-78
2022/05/22 08:53:01;;;;;;;2.37;1.50;;;;;;;23.30;42.28;100084.12;1823578;77;21570;-78
2022/05/22 09:01:21;;;;;;;1.95;1.37;;;;;;;23.29;42.26;100079.75;1846716;77;21182;-78
2022/05/22 09:04:25;;;;;;;2.42;1.30;;;;;;;23.29;42.28;100079.75;1846930;77;21087;-78
2022/05/22 09:07:09;;;;;;;3.02;1.35;;;;;;;23.29;42.29;100078.36;1846515;77;21060;-78
2022/05/22 09:09:38;;;;;;;1.85;1.32;;;;;;;23.28;42.27;100073.97;1846498;77;21152;-78
2022/05/22 09:12:33;;;;;;;2.37;1.55;;;;;;;23.28;42.29;100069.80;1846207;77;21052;-79
2022/05/22 09:15:36;;;;;;;2.08;1.20;;;;;;;23.28;42.31;100064.25;1846105;77;21036;-79
2022/05/22 09:18:20;;;;;;;1.50;1.10;;;;;;;23.29;42.32;100066.45;1846192;77;21021;-78
2022/05/22 09:21:16;;;;;;;2.35;1.42;;;;;;;23.28;42.31;100060.09;1846206;77;21072;-78
2022/05/22 09:24:09;;;;;;;2.10;1.52;;;;;;;23.27;42.33;100051.53;1846184;77;22152;-78
2022/05/22 09:27:06;;;;;;;3.70;1.80;;;;;;;23.27;42.34;100045.16;1846635;77;21825;-78
2022/05/22 09:29:59;;;;;;;3.15;1.70;;;;;;;23.27;42.33;100047.94;1846206;77;21045;-78
2022/05/22 09:33:04;;;;;;;2.55;1.55;;;;;;;23.26;42.34;100038.80;1845007;77;21009;-78
2022/05/22 09:36:11;;;;;;;1.92;1.20;;;;;;;23.26;42.34;100040.20;1815735;79;21013;-78
2022/05/22 09:39:04;;;;;;;1.95;1.35;;;;;;;23.24;42.36;100031.43;1842117;77;21118;-78
2022/05/22 09:41:50;;;;;;;2.67;1.32;;;;;;;23.25;42.35;100019.75;1832981;77;21074;-78
2022/05/22 09:44:34;;;;;;;2.45;1.50;;;;;;;23.25;42.36;100022.53;1830032;77;21024;-78
2022/05/22 09:47:23;;;;;;;2.37;1.60;;;;;;;23.23;42.38;100016.74;1829990;78;21068;-79
2022/05/22 09:50:20;;;;;;;1.82;1.40;;;;;;;23.25;42.37;100023.91;1830288;78;21048;-79
2022/05/22 09:53:03;;;;;;;2.27;1.20;;;;;;;23.24;42.40;100006.45;1829703;78;21264;-78
2022/05/22 09:55:43;;;;;;;2.20;1.30;;;;;;;23.24;42.41;100013.39;1829153;78;20974;-78
2022/05/22 09:58:33;;;;;;;3.10;1.50;;;;;;;23.24;42.42;100003.67;1830151;78;20930;-78
2022/05/22 10:01:40;;;;;;;2.05;1.50;;;;;;;23.23;42.44;100006.22;1830085;77;21417;-78
2022/05/22 10:04:46;;;;;;;1.75;1.45;;;;;;;23.24;42.44;99999.52;1830047;78;21634;-78
2022/05/22 10:07:26;;;;;;;2.27;1.35;;;;;;;23.24;42.43;100002.29;1830193;78;21115;-78
2022/05/22 10:09:59;;;;;;;;;;;;;;;23.23;42.44;99998.70;1832451;77;21471;-78
2022/05/22 10:12:55;;;;;;;1.60;1.30;;;;;;;23.23;42.48;99988.18;1830057;78;20473;-78
2022/05/22 10:15:48;;;;;;;2.85;1.35;;;;;;;23.21;42.46;99985.75;1829897;78;21528;-78
2022/05/22 10:18:28;;;;;;;1.65;1.27;;;;;;;23.22;42.48;99985.17;1830547;78;20990;-78
2022/05/22 10:21:00;;;;;;;3.02;1.40;;;;;;;23.22;42.46;99987.95;1830059;77;20977;-78
2022/05/22 10:24:04;;;;;;;1.55;1.10;;;;;;;23.22;42.49;99983.78;1830057;78;21064;-78
2022/05/22 10:26:38;;;;;;;1.87;1.40;;;;;;;23.22;42.49;99980.43;1829843;77;21116;-78
2022/05/22 10:29:25;;;;;;;2.85;1.40;;;;;;;23.22;42.49;99975.46;1830194;77;21559;-78
2022/05/22 10:32:12;;;;;;;2.10;1.42;;;;;;;23.23;42.51;99971.53;1829825;77;21072;-78
2022/05/22 10:35:05;;;;;;;3.72;1.65;;;;;;;23.23;42.52;99970.14;1829914;78;21124;-78
2022/05/22 10:38:07;;;;;;;2.17;1.20;;;;;;;23.23;42.51;99962.63;1832607;77;20985;-78
2022/05/22 10:43:18;;;;;;;2.10;1.40;;;;;;;23.23;42.53;99959.85;1846524;77;21009;-78
2022/05/22 10:45:44;;;;;;;2.27;1.35;;;;;;;23.23;42.51;99954.30;1847106;77;21040;-78
2022/05/22 10:48:23;;;;;;;2.05;1.42;;;;;;;23.25;42.53;99955.92;1847233;77;21712;-78
2022/05/22 10:50:54;;;;;;;2.50;1.30;;;;;;;23.25;42.54;99951.76;1846493;77;20994;-78
2022/05/22 10:53:32;;;;;;;3.15;1.45;;;;;;;23.25;42.55;99944.82;1846769;77;21024;-78
2022/05/22 10:56:10;;;;;;;1.80;1.20;;;;;;;23.26;42.53;99941.67;1846738;77;21076;-78
2022/05/22 10:58:45;;;;;;;1.62;1.20;;;;;;;23.26;42.55;99936.12;1840131;77;21056;-78
2022/05/22 11:01:16;;;;;;;2.27;1.47;;;;;;;23.28;42.54;99930.22;1846567;77;21262;-78
2022/05/22 11:03:42;;;;;;;2.62;1.40;;;;;;;23.27;42.55;99926.64;1846556;77;21025;-78
2022/05/22 11:06:21;;;;;;;1.77;1.40;;;;;;;23.28;42.53;99929.64;1846922;77;21052;-78
2022/05/22 11:08:53;;;;;;;2.60;1.75;;;;;;;23.29;42.56;99919.35;1846775;77;21053;-78
2022/05/22 11:11:23;;;;;;;2.12;1.17;;;;;;;23.28;42.54;99917.16;1847047;77;21048;-78
2022/05/22 11:13:54;;;;;;;2.47;1.40;;;;;;;23.29;42.55;99913.22;1846868;77;21199;-78
2022/05/22 11:16:26;;;;;;;1.72;1.20;;;;;;;23.29;42.55;99904.90;1846198;77;21088;-78
2022/05/22 11:19:23;;;;;;;2.60;1.45;;;;;;;23.30;42.53;99911.27;1846774;77;20985;-78
2022/05/22 11:22:21;;;;;;;2.15;1.37;;;;;;;23.30;42.54;99915.42;1846836;77;20921;-78
2022/05/22 11:25:05;;;;;;;1.42;1.20;;;;;;;23.30;42.54;99910.66;1846625;77;21056;-78
2022/05/22 11:28:07;;;;;;;1.80;1.32;;;;;;;23.29;42.52;99902.13;1847215;77;21778;-78
2022/05/22 11:30:57;;;;;;;3.20;1.42;;;;;;;23.31;42.53;99898.97;1846606;77;21020;-78
2022/05/22 11:34:03;;;;;;;1.80;1.57;;;;;;;23.29;42.52;99900.73;1846883;77;21033;-79
2022/05/22 11:37:01;;;;;;;2.05;1.40;;;;;;;23.29;42.51;99895.19;1846740;77;21075;-78
2022/05/22 11:40:03;;;;;;;1.87;1.10;;;;;;;23.28;42.51;99889.41;1836619;77;21036;-78
2022/05/22 11:42:37;;;;;;;1.25;1.12;;;;;;;23.28;42.51;99885.24;1810463;77;21508;-79
2022/05/22 11:45:37;;;;;;;1.80;1.30;;;;;;;23.28;42.53;99877.49;1830153;78;21060;-78
2022/05/22 11:48:21;;;;;;;2.72;1.42;;;;;;;23.28;42.54;99868.59;1811511;78;21100;-78
2022/05/22 11:51:08;;;;;;;1.60;1.15;;;;;;;23.29;42.54;99863.84;1830373;77;21013;-78
2022/05/22 11:54:01;;;;;;;2.00;1.27;;;;;;;23.29;42.55;99871.59;1828241;77;21112;-78
2022/05/22 11:57:02;;;;;;;2.20;1.40;;;;;;;23.28;42.58;99858.88;1829771;78;21000;-78
2022/05/22 11:59:59;;;;;;;2.65;1.62;;;;;;;23.29;42.57;99852.17;1829653;77;20933;-78
2022/05/22 12:03:04;;;;;;;1.77;1.25;;;;;;;23.28;42.56;99849.16;1798228;78;21045;-78
2022/05/22 12:05:57;;;;;;;2.90;1.50;;;;;;;23.29;42.56;99848.58;1829506;77;21389;-78
2022/05/22 12:08:52;;;;;;;1.75;1.37;;;;;;;23.28;42.58;99845.00;1816626;78;21587;-78
2022/05/22 12:11:39;;;;;;;2.55;1.20;;;;;;;23.28;42.59;99836.67;1829565;78;21165;-78